Time;durP1;ratioP1;P1;durP2;ratioP2;P2;SDS_P1;SDS_P2;PMS_P1;PMS_P2;Temp;Humidity;BMP_temperature;BMP_pressure;BME280_temperature;BME280_humidity;BME280_pressure;Samples;Min_cycle;Max_cycle;Signal;HPM_P1;HPM_P2
2023/04/21 00:01:10;;;;;;;17.40;7.90;;;;;;;-145.41;100.00;58600.66;4984142;28;20073;-71
2023/04/21 00:03:38;;;;;;;14.63;7.60;;;;;;;-145.41;100.00;58600.66;4981806;28;20045;-72
2023/04/21 00:06:08;;;;;;;14.70;7.40;;;;;;;-145.41;100.00;58600.66;4983274;28;20085;-72
2023/04/21 00:08:39;;;;;;;13.00;7.15;;;;;;;-145.41;100.00;58600.66;4982778;28;20058;-71
2023/04/21 00:11:05;;;;;;;18.23;7.38;;;;;;;-145.41;100.00;58600.66;4981529;28;20121;-72
2023/04/21 00:13:32;;;;;;;14.23;7.25;;;;;;;-145.41;100.00;58600.66;4983680;28;20497;-71
2023/04/21 00:15:57;;;;;;;15.43;7.78;;;;;;;-145.41;100.00;58600.66;4981076;28;20043;-72
2023/04/21 00:18:24;;;;;;;15.35;6.82;;;;;;;-145.41;100.00;58600.66;4983993;28;20105;-72
2023/04/21 00:20:49;;;;;;;16.73;7.10;;;;;;;-145.41;100.00;58600.66;4980660;28;20074;-74
2023/04/21 00:23:14;;;;;;;16.90;7.15;;;;;;;-145.41;100.00;58600.66;4984304;28;20076;-74
2023/04/21 00:25:40;;;;;;;19.63;7.22;;;;;;;-145.41;100.00;58600.66;4980774;28;20070;-74
2023/04/21 00:28:05;;;;;;;14.98;7.03;;;;;;;-145.41;100.00;58600.66;4979961;28;20405;-74
2023/04/21 00:30:30;;;;;;;16.80;7.43;;;;;;;-145.41;100.00;58600.66;4980056;28;20097;-74
2023/04/21 00:32:56;;;;;;;17.40;6.75;;;;;;;-145.41;100.00;58600.66;4973671;28;20085;-74
2023/04/21 00:35:21;;;;;;;17.27;7.95;;;;;;;-145.41;100.00;58600.66;4984254;28;20082;-74
2023/04/21 00:37:48;;;;;;;18.95;7.13;;;;;;;-145.41;100.00;58600.66;4971518;28;20050;-74
2023/04/21 00:40:14;;;;;;;13.85;6.90;;;;;;;-145.41;100.00;58600.66;4973716;28;20061;-74
2023/04/21 00:42:40;;;;;;;18.45;7.15;;;;;;;-145.41;100.00;58600.66;4963537;28;20417;-74
2023/04/21 00:45:05;;;;;;;19.77;7.28;;;;;;;-145.41;100.00;58600.66;4983384;28;20038;-74
2023/04/21 00:47:31;;;;;;;16.77;6.82;;;;;;;-145.41;100.00;58600.66;4947905;28;20109;-74
2023/04/21 00:49:57;;;;;;;16.55;7.20;;;;;;;-145.41;100.00;58600.66;4973407;28;20057;-75
2023/04/21 00:52:23;;;;;;;21.35;8.93;;;;;;;-145.41;100.00;58600.66;4981443;28;20438;-74
2023/04/21 00:54:49;;;;;;;20.00;7.40;;;;;;;-145.41;100.00;58600.66;4965730;28;20035;-74
2023/04/21 00:57:15;;;;;;;13.98;7.00;;;;;;;-145.41;100.00;58600.66;4962530;28;20506;-74
2023/04/21 00:59:40;;;;;;;19.90;7.30;;;;;;;-145.41;100.00;58600.66;4981372;28;20034;-74
2023/04/21 01:02:06;;;;;;;17.63;7.43;;;;;;;-145.41;100.00;58600.66;4956629;28;20049;-74
2023/04/21 01:04:35;;;;;;;13.40;7.05;;;;;;;-145.41;100.00;58600.66;4965050;28;20080;-74
2023/04/21 01:07:03;;;;;;;16.40;7.55;;;;;;;-145.41;100.00;58600.66;4982623;28;20030;-74
2023/04/21 01:09:29;;;;;;;13.07;6.70;;;;;;;-145.41;100.00;58600.66;4963544;28;20425;-74
2023/04/21 01:12:08;;;;;;;14.57;7.45;;;;;;;-145.41;100.00;58600.66;4982897;28;20034;-74
2023/04/21 01:14:35;;;;;;;17.45;7.30;;;;;;;-145.41;100.00;58600.66;4977874;28;20096;-74
2023/04/21 01:17:02;;;;;;;17.55;7.68;;;;;;;-145.41;100.00;58600.66;4965226;28;20525;-74
2023/04/21 01:19:33;;;;;;;17.67;7.35;;;;;;;-145.41;100.00;58600.66;4978393;28;20054;-74
2023/04/21 01:21:59;;;;;;;13.38;7.18;;;;;;;-145.41;100.00;58600.66;4971662;28;20031;-74
2023/04/21 01:24:46;;;;;;;17.25;8.10;;;;;;;-145.41;100.00;58600.66;4963984;28;20401;-74
2023/04/21 01:27:17;;;;;;;17.08;8.00;;;;;;;-145.41;100.00;58600.66;4998247;22;20099;-76
2023/04/21 01:29:45;;;;;;;17.33;7.57;;;;;;;-145.41;100.00;58600.66;4988267;28;20046;-76
2023/04/21 01:32:19;;;;;;;15.90;7.53;;;;;;;-145.41;100.00;58600.66;4983331;28;20420;-76
2023/04/21 01:34:45;;;;;;;16.67;7.32;;;;;;;-145.41;100.00;58600.66;4982760;28;20031;-76
2023/04/21 01:37:14;;;;;;;17.83;8.40;;;;;;;-145.41;100.00;58600.66;4977730;28;20494;-76
2023/04/21 01:39:50;;;;;;;17.02;9.18;;;;;;;-145.41;100.00;58600.66;4965609;28;20034;-76
2023/04/21 01:42:17;;;;;;;16.67;9.43;;;;;;;-145.41;100.00;58600.66;4948096;28;20442;-76
2023/04/21 01:44:42;;;;;;;19.35;8.57;;;;;;;-145.41;100.00;58600.66;4966202;28;20042;-76
2023/04/21 01:47:08;;;;;;;18.90;8.60;;;;;;;-145.41;100.00;58600.66;4968905;28;20030;-76
2023/04/21 01:49:33;;;;;;;15.18;8.60;;;;;;;-145.41;100.00;58600.66;4951381;28;20047;-76
2023/04/21 01:51:59;;;;;;;15.55;9.18;;;;;;;-145.41;100.00;58600.66;4966799;28;20034;-76
2023/04/21 01:54:24;;;;;;;19.65;9.45;;;;;;;-145.41;100.00;58600.66;4966503;28;20038;-76
2023/04/21 01:56:50;;;;;;;17.55;9.13;;;;;;;-145.41;100.00;58600.66;4946441;28;20035;-76
2023/04/21 01:59:16;;;;;;;17.80;9.10;;;;;;;-145.41;100.00;58600.66;4952963;29;20050;-76
2023/04/21 02:01:42;;;;;;;19.50;8.68;;;;;;;-145.41;100.00;58600.66;4964505;28;20090;-76
2023/04/21 02:04:07;;;;;;;15.20;8.30;;;;;;;-145.41;100.00;58600.66;4966133;28;20043;-76
2023/04/21 02:06:34;;;;;;;18.77;8.95;;;;;;;-145.41;100.00;58600.66;4949004;28;20406;-76
2023/04/21 02:09:00;;;;;;;17.17;9.73;;;;;;;-145.41;100.00;58600.66;4962260;28;20035;-76
2023/04/21 02:11:27;;;;;;;19.05;10.88;;;;;;;-145.41;100.00;58600.66;4962689;28;20039;-76
2023/04/21 02:13:53;;;;;;;21.73;10.35;;;;;;;-145.41;100.00;58600.66;4953163;28;20137;-76
2023/04/21 02:16:19;;;;;;;21.83;9.70;;;;;;;-145.41;100.00;58600.66;4965239;28;20172;-76
2023/04/21 02:18:47;;;;;;;18.00;9.85;;;;;;;-145.41;100.00;58600.66;4955275;28;20129;-75
2023/04/21 02:21:13;;;;;;;23.02;10.30;;;;;;;-145.41;100.00;58600.66;4955003;28;20078;-76
2023/04/21 02:23:38;;;;;;;21.08;9.25;;;;;;;-145.41;100.00;58600.66;4966596;28;20035;-76
2023/04/21 02:26:04;;;;;;;17.55;10.07;;;;;;;-145.41;100.00;58600.66;4950738;28;20039;-76
2023/04/21 02:28:30;;;;;;;15.77;9.60;;;;;;;-145.41;100.00;58600.66;4933664;28;1019663;-76
2023/04/21 02:30:56;;;;;;;20.70;10.13;;;;;;;-145.41;100.00;58600.66;4970173;28;20118;-76
2023/04/21 02:33:22;;;;;;;26.35;12.50;;;;;;;-145.41;100.00;58600.66;4956521;28;20035;-76
2023/04/21 02:35:47;;;;;;;21.40;10.88;;;;;;;-145.41;100.00;58600.66;4964846;28;20063;-76
2023/04/21 02:38:12;;;;;;;21.58;10.93;;;;;;;-145.41;100.00;58600.66;4947692;28;20070;-76
2023/04/21 02:40:39;;;;;;;18.35;10.05;;;;;;;-145.41;100.00;58600.66;4963481;28;20045;-76
2023/04/21 02:43:05;;;;;;;18.02;9.95;;;;;;;-145.41;100.00;58600.66;4947308;28;20038;-76
2023/04/21 02:45:30;;;;;;;20.58;9.70;;;;;;;-145.41;100.00;58600.66;4965326;28;20039;-76
2023/04/21 02:47:56;;;;;;;22.23;11.27;;;;;;;-145.41;100.00;58600.66;4949388;28;20041;-76
2023/04/21 02:50:21;;;;;;;19.88;12.27;;;;;;;-145.41;100.00;58600.66;4964021;28;20023;-76
2023/04/21 02:52:47;;;;;;;18.77;10.48;;;;;;;-145.41;100.00;58600.66;4948027;28;20035;-76
2023/04/21 02:55:12;;;;;;;18.45;12.70;;;;;;;-145.41;100.00;58600.66;4949433;28;20405;-76
2023/04/21 02:57:37;;;;;;;19.85;10.77;;;;;;;-145.41;100.00;58600.66;4963834;28;20050;-76
2023/04/21 03:00:03;;;;;;;19.40;9.35;;;;;;;-145.41;100.00;58600.66;4948283;28;20081;-76
2023/04/21 03:02:30;;;;;;;20.25;9.35;;;;;;;-145.41;100.00;58600.66;4963751;28;20120;-76
2023/04/21 03:04:55;;;;;;;19.67;8.75;;;;;;;-145.41;100.00;58600.66;4952043;28;20027;-76
2023/04/21 03:07:20;;;;;;;15.13;7.95;;;;;;;-145.41;100.00;58600.66;4965345;28;20046;-76
2023/04/21 03:09:46;;;;;;;16.58;8.60;;;;;;;-145.41;100.00;58600.66;4966115;28;20035;-76
2023/04/21 03:12:11;;;;;;;21.35;9.57;;;;;;;-145.41;100.00;58600.66;4962137;28;20035;-76
2023/04/21 03:14:36;;;;;;;22.88;9.63;;;;;;;-145.41;100.00;58600.66;4965809;28;20117;-76
2023/04/21 03:17:02;;;;;;;17.92;8.30;;;;;;;-145.41;100.00;58600.66;4962563;28;20066;-76
2023/04/21 03:19:30;;;;;;;18.13;8.00;;;;;;;-145.41;100.00;58600.66;4948825;28;20073;-76
2023/04/21 03:21:55;;;;;;;14.93;8.10;;;;;;;-145.41;100.00;58600.66;4963732;28;20071;-76
2023/04/21 03:24:21;;;;;;;24.60;9.30;;;;;;;-145.41;100.00;58600.66;4948718;28;20035;-75
2023/04/21 03:26:47;;;;;;;18.80;8.25;;;;;;;-145.41;100.00;58600.66;4948063;28;20027;-75
2023/04/21 03:29:12;;;;;;;17.92;8.65;;;;;;;-145.41;100.00;58600.66;4953385;28;20031;-75
2023/04/21 03:31:37;;;;;;;14.10;8.10;;;;;;;-145.41;100.00;58600.66;4965283;28;20448;-75
2023/04/21 03:34:03;;;;;;;15.15;8.18;;;;;;;-145.41;100.00;58600.66;4965607;28;20429;-75
2023/04/21 03:36:28;;;;;;;19.23;9.23;;;;;;;-145.41;100.00;58600.66;4970326;28;20468;-75
2023/04/21 03:38:54;;;;;;;18.73;10.48;;;;;;;-145.41;100.00;58600.66;4965913;28;20484;-75
2023/04/21 03:41:20;;;;;;;24.80;13.57;;;;;;;-145.41;100.00;58600.66;4951666;28;20031;-75
2023/04/21 03:43:49;;;;;;;21.25;11.88;;;;;;;-145.41;100.00;58600.66;4956987;28;20027;-75
2023/04/21 03:46:20;;;;;;;16.48;11.43;;;;;;;-145.41;100.00;58600.66;4938892;28;20023;-75
2023/04/21 03:48:46;;;;;;;22.38;9.48;;;;;;;-145.41;100.00;58600.66;4947765;28;20069;-75
2023/04/21 03:51:13;;;;;;;19.55;9.07;;;;;;;-145.41;100.00;58600.66;4963776;28;20019;-75
2023/04/21 03:53:38;;;;;;;13.68;7.22;;;;;;;-145.41;100.00;58600.66;4966243;28;20130;-75
2023/04/21 03:56:04;;;;;;;18.25;8.32;;;;;;;-145.41;100.00;58600.66;4964539;28;20499;-76
2023/04/21 03:58:30;;;;;;;12.20;7.15;;;;;;;-145.41;100.00;58600.66;4955366;28;20050;-76
2023/04/21 04:00:55;;;;;;;13.75;7.18;;;;;;;-145.41;100.00;58600.66;4944752;28;20039;-75
2023/04/21 04:03:20;;;;;;;16.02;6.97;;;;;;;-145.41;100.00;58600.66;4951385;28;20039;-76
2023/04/21 04:05:46;;;;;;;19.63;7.93;;;;;;;-145.41;100.00;58600.66;4947369;28;20042;-75
2023/04/21 04:08:11;;;;;;;17.85;7.53;;;;;;;-145.41;100.00;58600.66;4965555;28;20062;-75
2023/04/21 04:10:36;;;;;;;14.80;7.55;;;;;;;-145.41;100.00;58600.66;4965214;28;20046;-75
2023/04/21 04:13:02;;;;;;;19.17;8.27;;;;;;;-145.41;100.00;58600.66;4965377;28;20035;-76
2023/04/21 04:15:27;;;;;;;15.15;7.90;;;;;;;-145.41;100.00;58600.66;4964875;28;20505;-75
2023/04/21 04:17:53;;;;;;;17.55;7.55;;;;;;;-145.41;100.00;58600.66;4967351;28;20041;-75
2023/04/21 04:20:18;;;;;;;19.63;9.75;;;;;;;-145.41;100.00;58600.66;4964410;28;20038;-75
2023/04/21 04:22:43;;;;;;;19.58;9.38;;;;;;;-145.41;100.00;58600.66;4965030;28;20130;-75
2023/04/21 04:25:09;;;;;;;18.30;11.98;;;;;;;-145.41;100.00;58600.66;4961268;28;20485;-75
2023/04/21 04:27:34;;;;;;;23.10;9.73;;;;;;;-145.41;100.00;58600.66;4964679;28;20043;-75
2023/04/21 04:30:00;;;;;;;17.23;9.02;;;;;;;-145.41;100.00;58600.66;4968057;28;20064;-75
2023/04/21 04:32:27;;;;;;;16.42;8.27;;;;;;;-145.41;100.00;58600.66;4961281;28;20048;-75
2023/04/21 04:34:54;;;;;;;15.60;7.97;;;;;;;-145.41;100.00;58600.66;4964728;28;20086;-75
2023/04/21 04:37:20;;;;;;;15.95;8.48;;;;;;;-145.41;100.00;58600.66;4963951;28;20109;-75
2023/04/21 04:39:46;;;;;;;16.23;8.77;;;;;;;-145.41;100.00;58600.66;4961679;28;20046;-76
2023/04/21 04:42:11;;;;;;;18.63;8.65;;;;;;;-145.41;100.00;58600.66;4963471;28;20350;-75
2023/04/21 04:44:37;;;;;;;17.58;9.50;;;;;;;-145.41;100.00;58600.66;4966097;28;20100;-75
2023/04/21 04:47:03;;;;;;;22.42;8.40;;;;;;;-145.41;100.00;58600.66;4961997;28;20065;-75
2023/04/21 04:49:28;;;;;;;23.70;9.27;;;;;;;-145.41;100.00;58600.66;4962927;28;20065;-75
2023/04/21 04:51:54;;;;;;;15.20;8.88;;;;;;;-145.41;100.00;58600.66;4953493;28;20035;-75
2023/04/21 04:54:19;;;;;;;20.67;8.98;;;;;;;-145.41;100.00;58600.66;4964699;28;20065;-75
2023/04/21 04:56:45;;;;;;;16.05;8.38;;;;;;;-145.41;100.00;58600.66;4964080;28;20409;-75
2023/04/21 04:59:10;;;;;;;15.30;7.57;;;;;;;-145.41;100.00;58600.66;4964412;28;20035;-75
2023/04/21 05:01:37;;;;;;;20.92;8.15;;;;;;;-145.41;100.00;58600.66;4964748;28;20101;-75
2023/04/21 05:04:03;;;;;;;30.38;15.02;;;;;;;-145.41;100.00;58600.66;4966724;28;20118;-76
2023/04/21 05:06:28;;;;;;;20.90;13.13;;;;;;;-145.41;100.00;58600.66;4968558;28;20046;-75
2023/04/21 05:08:54;;;;;;;21.55;9.80;;;;;;;-145.41;100.00;58600.66;4965840;28;20038;-75
2023/04/21 05:11:20;;;;;;;16.42;8.10;;;;;;;-145.41;100.00;58600.66;4966995;28;20038;-75
2023/04/21 05:13:46;;;;;;;18.58;7.93;;;;;;;-145.41;100.00;58600.66;4948684;28;20066;-76
2023/04/21 05:16:11;;;;;;;15.32;7.53;;;;;;;-145.41;100.00;58600.66;4969498;28;20070;-75
2023/04/21 05:18:36;;;;;;;16.95;7.47;;;;;;;-145.41;100.00;58600.66;4968088;28;20078;-76
2023/04/21 05:21:02;;;;;;;18.98;7.80;;;;;;;-145.41;100.00;58600.66;4947767;28;20035;-76
2023/04/21 05:23:27;;;;;;;16.17;7.55;;;;;;;-145.41;100.00;58600.66;4967335;28;20519;-76
2023/04/21 05:25:53;;;;;;;19.92;7.30;;;;;;;-145.41;100.00;58600.66;4965140;28;20047;-76
2023/04/21 05:28:18;;;;;;;13.23;7.07;;;;;;;-145.41;100.00;58600.66;4970480;28;20038;-77
2023/04/21 05:30:43;;;;;;;15.18;7.85;;;;;;;-145.41;100.00;58600.66;4964780;28;20062;-76
2023/04/21 05:33:09;;;;;;;20.15;8.23;;;;;;;-145.41;100.00;58600.66;4967243;28;20062;-77
2023/04/21 05:35:34;;;;;;;17.40;8.32;;;;;;;-145.41;100.00;58600.66;4964774;28;20462;-77
2023/04/21 05:38:00;;;;;;;15.40;8.95;;;;;;;-145.41;100.00;58600.66;4967864;28;20049;-77
2023/04/21 05:40:25;;;;;;;18.15;9.60;;;;;;;-145.41;100.00;58600.66;4958151;28;20401;-77
2023/04/21 05:42:50;;;;;;;18.90;8.45;;;;;;;-145.41;100.00;58600.66;4947030;29;20050;-77
2023/04/21 05:45:16;;;;;;;15.70;8.98;;;;;;;-145.41;100.00;58600.66;4971244;28;20078;-76
2023/04/21 05:47:41;;;;;;;11.68;7.13;;;;;;;-145.41;100.00;58600.66;4963975;28;20043;-77
2023/04/21 05:50:07;;;;;;;18.80;9.20;;;;;;;-145.41;100.00;58600.66;4967334;28;20035;-77
2023/04/21 05:52:33;;;;;;;18.95;10.50;;;;;;;-145.41;100.00;58600.66;4971226;28;20041;-77
2023/04/21 05:54:59;;;;;;;19.33;9.85;;;;;;;-145.41;100.00;58600.66;4966203;28;20031;-77
2023/04/21 05:57:24;;;;;;;18.17;10.07;;;;;;;-145.41;100.00;58600.66;4968315;28;20552;-76
2023/04/21 05:59:50;;;;;;;18.77;10.00;;;;;;;-145.41;100.00;58600.66;4974141;28;20109;-77
2023/04/21 06:02:15;;;;;;;23.20;10.32;;;;;;;-145.41;100.00;58600.66;4966882;28;20718;-77
2023/04/21 06:04:40;;;;;;;21.10;11.23;;;;;;;-145.41;100.00;58600.66;4967575;28;20074;-76
2023/04/21 06:07:07;;;;;;;24.02;13.80;;;;;;;-145.41;100.00;58600.66;4964207;28;20047;-76
2023/04/21 06:09:33;;;;;;;23.92;14.07;;;;;;;-145.41;100.00;58600.66;4967192;28;20039;-77
2023/04/21 06:11:58;;;;;;;21.23;11.98;;;;;;;-145.41;100.00;58600.66;4966373;28;20049;-76
2023/04/21 06:14:23;;;;;;;21.55;12.32;;;;;;;-145.41;100.00;58600.66;4965103;28;20034;-77
2023/04/21 06:16:49;;;;;;;28.98;17.80;;;;;;;-145.41;100.00;58600.66;4966007;28;20470;-77
2023/04/21 06:19:14;;;;;;;28.73;17.38;;;;;;;-145.41;100.00;58600.66;4964488;28;20077;-76
2023/04/21 06:21:39;;;;;;;33.08;18.65;;;;;;;-145.41;100.00;58600.66;4967158;28;20046;-77
2023/04/21 06:24:05;;;;;;;27.60;17.80;;;;;;;-145.41;100.00;58600.66;4967243;28;20042;-77
2023/04/21 06:26:30;;;;;;;24.30;14.60;;;;;;;-145.41;100.00;58600.66;4968802;28;20058;-76
2023/04/21 06:28:56;;;;;;;22.98;11.82;;;;;;;-145.41;100.00;58600.66;4964320;28;20433;-76
2023/04/21 06:31:21;;;;;;;19.48;11.52;;;;;;;-145.41;100.00;58600.66;4965515;28;20026;-76
2023/04/21 06:33:46;;;;;;;21.90;12.68;;;;;;;-145.41;100.00;58600.66;4966034;28;20043;-76
2023/04/21 06:36:12;;;;;;;26.05;12.70;;;;;;;-145.41;100.00;58600.66;4966957;28;20050;-76
2023/04/21 06:38:38;;;;;;;19.27;10.45;;;;;;;-145.41;100.00;58600.66;4966280;28;20102;-76
2023/04/21 06:41:05;;;;;;;25.73;12.27;;;;;;;-145.41;100.00;58600.66;4966585;28;20043;-76
2023/04/21 06:43:30;;;;;;;20.98;12.18;;;;;;;-145.41;100.00;58600.66;4964797;28;20090;-76
2023/04/21 06:45:56;;;;;;;19.10;12.48;;;;;;;-145.41;100.00;58600.66;4950178;28;20023;-76
2023/04/21 06:48:23;;;;;;;21.67;11.40;;;;;;;-145.41;100.00;58600.66;4965162;28;20556;-76
2023/04/21 06:50:48;;;;;;;20.45;10.40;;;;;;;-145.41;100.00;58600.66;4964073;28;20030;-76
2023/04/21 06:53:14;;;;;;;21.83;11.43;;;;;;;-145.41;100.00;58600.66;4965584;28;20039;-76
2023/04/21 06:55:40;;;;;;;23.48;12.00;;;;;;;-145.41;100.00;58600.66;4968357;28;20027;-76
2023/04/21 06:58:05;;;;;;;24.48;12.57;;;;;;;-145.41;100.00;58600.66;4963519;28;20035;-76
2023/04/21 07:00:31;;;;;;;22.08;11.75;;;;;;;-145.41;100.00;58600.66;4947968;28;20053;-76
2023/04/21 07:02:56;;;;;;;18.33;11.07;;;;;;;-145.41;100.00;58600.66;4963360;28;20196;-76
2023/04/21 07:05:21;;;;;;;23.08;16.23;;;;;;;-145.41;100.00;58600.66;4965902;28;20058;-76
2023/04/21 07:07:47;;;;;;;30.10;17.77;;;;;;;-145.41;100.00;58600.66;4967543;28;20038;-76
2023/04/21 07:10:17;;;;;;;29.58;19.00;;;;;;;-145.41;100.00;58600.66;4965581;28;20062;-76
2023/04/21 07:12:43;;;;;;;26.50;16.70;;;;;;;-145.41;100.00;58600.66;4962752;28;20089;-76
2023/04/21 07:15:09;;;;;;;28.38;18.58;;;;;;;-145.41;100.00;58600.66;4965856;28;20047;-76
2023/04/21 07:17:34;;;;;;;28.45;17.73;;;;;;;-145.41;100.00;58600.66;4966001;28;20039;-76
2023/04/21 07:19:59;;;;;;;31.58;19.38;;;;;;;-145.41;100.00;58600.66;4965922;28;20043;-76
2023/04/21 07:22:25;;;;;;;23.80;17.08;;;;;;;-145.41;100.00;58600.66;4962674;28;20043;-76
2023/04/21 07:24:50;;;;;;;23.42;16.30;;;;;;;-145.41;100.00;58600.66;4965448;28;20043;-76
2023/04/21 07:27:17;;;;;;;24.75;15.68;;;;;;;-145.41;100.00;58600.66;4966707;28;20114;-76
2023/04/21 07:29:43;;;;;;;28.65;15.50;;;;;;;-145.41;100.00;58600.66;4962950;28;20031;-76
2023/04/21 07:32:08;;;;;;;23.83;16.20;;;;;;;-145.41;100.00;58600.66;4965815;28;20120;-76
2023/04/21 07:34:33;;;;;;;21.83;11.38;;;;;;;-145.41;100.00;58600.66;5002218;23;20058;-72
2023/04/21 07:36:59;;;;;;;24.45;15.13;;;;;;;-145.41;100.00;58600.66;5001756;28;20042;-72
2023/04/21 07:39:25;;;;;;;29.40;16.73;;;;;;;-145.41;100.00;58600.66;4986730;28;20049;-72
2023/04/21 07:41:50;;;;;;;27.80;16.50;;;;;;;-145.41;100.00;58600.66;5004461;28;20080;-72
2023/04/21 07:44:15;;;;;;;26.05;17.13;;;;;;;-145.41;100.00;58600.66;4995792;28;20093;-72
2023/04/21 07:46:41;;;;;;;22.23;15.48;;;;;;;-145.41;100.00;58600.66;4992556;28;20085;-72
2023/04/21 07:49:06;;;;;;;30.13;17.02;;;;;;;-145.41;100.00;58600.66;4992332;28;20035;-72
2023/04/21 07:51:32;;;;;;;26.77;16.63;;;;;;;-145.41;100.00;58600.66;4992680;28;20089;-72
2023/04/21 07:53:57;;;;;;;19.45;12.63;;;;;;;-145.41;100.00;58600.66;4992458;28;20471;-72
2023/04/21 07:56:22;;;;;;;23.85;16.00;;;;;;;-145.41;100.00;58600.66;4992716;28;20517;-72
2023/04/21 07:58:48;;;;;;;26.17;16.13;;;;;;;-145.41;100.00;58600.66;4992003;28;20149;-72
2023/04/21 08:01:14;;;;;;;22.65;14.40;;;;;;;-145.41;100.00;58600.66;4992557;28;20042;-72
2023/04/21 08:03:39;;;;;;;27.15;16.13;;;;;;;-145.41;100.00;58600.66;4992546;28;20042;-72
2023/04/21 08:06:05;;;;;;;24.50;15.98;;;;;;;-145.41;100.00;58600.66;4992288;28;20382;-72
2023/04/21 08:08:31;;;;;;;20.83;14.50;;;;;;;-145.41;100.00;58600.66;4992294;28;20240;-72
2023/04/21 08:10:56;;;;;;;17.60;11.85;;;;;;;-145.41;100.00;58600.66;4992373;28;20528;-72
2023/04/21 08:13:24;;;;;;;23.23;13.90;;;;;;;-145.41;100.00;58600.66;4992287;28;20128;-72
2023/04/21 08:15:50;;;;;;;26.38;15.05;;;;;;;-145.41;100.00;58600.66;4992292;28;20030;-72
2023/04/21 08:18:17;;;;;;;26.98;14.35;;;;;;;-145.41;100.00;58600.66;4992200;28;20449;-72
2023/04/21 08:20:43;;;;;;;24.60;13.75;;;;;;;-145.41;100.00;58600.66;4991803;28;20034;-72
2023/04/21 08:23:08;;;;;;;16.35;12.13;;;;;;;-145.41;100.00;58600.66;4991933;28;20516;-72
2023/04/21 08:25:34;;;;;;;19.15;12.38;;;;;;;-145.41;100.00;58600.66;4992233;28;20715;-72
2023/04/21 08:27:59;;;;;;;26.50;14.65;;;;;;;-145.41;100.00;58600.66;4992055;28;20493;-72
2023/04/21 08:30:27;;;;;;;25.02;15.07;;;;;;;-145.41;100.00;58600.66;4991747;28;20034;-72
2023/04/21 08:32:52;;;;;;;19.17;14.60;;;;;;;-145.41;100.00;58600.66;4988528;28;20119;-72
2023/04/21 08:35:17;;;;;;;19.55;12.63;;;;;;;-145.41;100.00;58600.66;4986622;28;20490;-72
2023/04/21 08:37:44;;;;;;;22.20;13.23;;;;;;;-145.41;100.00;58600.66;4992017;28;20500;-72
2023/04/21 08:40:10;;;;;;;22.08;12.90;;;;;;;-145.41;100.00;58600.66;4974140;28;20043;-72
2023/04/21 08:42:38;;;;;;;18.52;12.73;;;;;;;-145.41;100.00;58600.66;4992028;28;20042;-72
2023/04/21 08:45:05;;;;;;;22.65;14.10;;;;;;;-145.41;100.00;58600.66;4991979;28;20133;-72
2023/04/21 08:47:32;;;;;;;18.27;12.80;;;;;;;-145.41;100.00;58600.66;4991951;28;20076;-72
2023/04/21 08:49:58;;;;;;;21.55;12.82;;;;;;;-145.41;100.00;58600.66;4991461;28;20065;-73
2023/04/21 08:52:23;;;;;;;16.60;10.90;;;;;;;-145.41;100.00;58600.66;4991829;28;20030;-72
2023/04/21 08:54:51;;;;;;;16.27;11.35;;;;;;;-145.41;100.00;58600.66;4991731;28;20026;-72
2023/04/21 08:57:17;;;;;;;18.20;11.95;;;;;;;-145.41;100.00;58600.66;4991987;28;20397;-72
2023/04/21 08:59:44;;;;;;;19.17;11.82;;;;;;;-145.41;100.00;58600.66;4991534;28;20031;-72
2023/04/21 09:02:17;;;;;;;17.38;10.43;;;;;;;-145.41;100.00;58600.66;4991576;28;20038;-73
2023/04/21 09:04:47;;;;;;;18.85;10.85;;;;;;;-145.41;100.00;58600.66;4987716;28;20041;-72
2023/04/21 09:07:40;;;;;;;19.33;10.45;;;;;;;-145.41;100.00;58600.66;4988779;28;20386;-72
2023/04/21 09:10:06;;;;;;;19.25;11.52;;;;;;;-145.41;100.00;58600.66;4988201;28;20065;-72
2023/04/21 09:12:31;;;;;;;17.55;12.10;;;;;;;-145.41;100.00;58600.66;4991223;28;20062;-72
2023/04/21 09:14:57;;;;;;;19.05;11.65;;;;;;;-145.41;100.00;58600.66;4991457;28;20050;-72
2023/04/21 09:17:32;;;;;;;16.00;10.82;;;;;;;-145.41;100.00;58600.66;4991531;28;20113;-72
2023/04/21 09:20:12;;;;;;;18.77;10.80;;;;;;;-145.41;100.00;58600.66;4991436;28;20477;-72
2023/04/21 09:22:37;;;;;;;17.30;10.45;;;;;;;-145.41;100.00;58600.66;4989054;28;20062;-72
2023/04/21 09:25:03;;;;;;;15.80;9.93;;;;;;;-145.41;100.00;58600.66;4991493;28;20509;-72
2023/04/21 09:27:28;;;;;;;15.88;10.45;;;;;;;-145.41;100.00;58600.66;4991342;28;20069;-73
2023/04/21 09:29:53;;;;;;;14.40;10.00;;;;;;;-145.41;100.00;58600.66;4973848;28;20042;-73
2023/04/21 09:32:19;;;;;;;14.95;10.13;;;;;;;-145.41;100.00;58600.66;4991346;28;20053;-73
2023/04/21 09:34:45;;;;;;;16.80;9.85;;;;;;;-145.41;100.00;58600.66;4991178;28;20046;-73
2023/04/21 09:37:13;;;;;;;16.30;10.40;;;;;;;-145.41;100.00;58600.66;4991591;28;20444;-73
2023/04/21 09:39:43;;;;;;;14.00;8.23;;;;;;;-145.41;100.00;58600.66;4991130;28;20046;-73
2023/04/21 09:42:10;;;;;;;12.02;8.63;;;;;;;-145.41;100.00;58600.66;4991278;28;20069;-73
2023/04/21 09:44:37;;;;;;;16.65;8.55;;;;;;;-145.41;100.00;58600.66;4991111;28;20042;-73
2023/04/21 09:47:03;;;;;;;14.88;9.40;;;;;;;-145.41;100.00;58600.66;4990122;28;20057;-73
2023/04/21 09:49:30;;;;;;;14.07;8.23;;;;;;;-145.41;100.00;58600.66;4994211;28;20469;-73
2023/04/21 09:52:02;;;;;;;12.73;7.53;;;;;;;-145.41;100.00;58600.66;4994826;28;20485;-74
2023/04/21 09:54:30;;;;;;;15.90;8.38;;;;;;;-145.41;100.00;58600.66;4991308;28;20032;-73
2023/04/21 09:56:58;;;;;;;14.57;8.27;;;;;;;-145.41;100.00;58600.66;4994703;28;20145;-73
2023/04/21 09:59:26;;;;;;;13.05;8.48;;;;;;;-145.41;100.00;58600.66;4994596;28;20030;-73
2023/04/21 10:01:53;;;;;;;12.18;7.75;;;;;;;-145.41;100.00;58600.66;4994543;28;20038;-73
2023/04/21 10:04:21;;;;;;;11.35;6.95;;;;;;;-145.41;100.00;58600.66;4994633;28;20046;-73
2023/04/21 10:06:47;;;;;;;16.13;7.60;;;;;;;-145.41;100.00;58600.66;4994566;28;20034;-73
2023/04/21 10:09:14;;;;;;;9.90;6.65;;;;;;;-145.41;100.00;58600.66;4976591;28;20045;-73
2023/04/21 10:11:40;;;;;;;12.27;8.05;;;;;;;-145.41;100.00;58600.66;4994711;28;20061;-74
2023/04/21 10:14:08;;;;;;;12.27;6.55;;;;;;;-145.41;100.00;58600.66;4994394;28;20038;-73
2023/04/21 10:16:35;;;;;;;11.63;6.78;;;;;;;-145.41;100.00;58600.66;4994632;28;20108;-73
2023/04/21 10:19:01;;;;;;;10.30;6.40;;;;;;;-145.41;100.00;58600.66;4976941;28;20518;-74
2023/04/21 10:21:27;;;;;;;14.88;7.22;;;;;;;-145.41;100.00;58600.66;4994495;28;20045;-74
2023/04/21 10:23:53;;;;;;;10.63;6.30;;;;;;;-145.41;100.00;58600.66;4990278;28;20136;-73
2023/04/21 10:26:31;;;;;;;8.65;4.47;;;;;;;-145.41;100.00;58600.66;4976897;28;20038;-73
2023/04/21 10:28:59;;;;;;;5.70;3.70;;;;;;;-145.41;100.00;58600.66;4992218;28;20125;-74
2023/04/21 10:31:33;;;;;;;6.55;3.35;;;;;;;-145.41;100.00;58600.66;4994016;28;20038;-74
2023/04/21 10:34:05;;;;;;;9.00;5.25;;;;;;;-145.41;100.00;58600.66;4993898;28;20766;-73
2023/04/21 10:36:33;;;;;;;10.20;5.53;;;;;;;-145.41;100.00;58600.66;4990923;28;20093;-73
2023/04/21 10:39:02;;;;;;;8.23;5.05;;;;;;;-145.41;100.00;58600.66;4993825;28;20118;-74
2023/04/21 10:41:29;;;;;;;10.48;4.75;;;;;;;-145.41;100.00;58600.66;4976698;28;20034;-74
2023/04/21 10:44:11;;;;;;;7.55;3.97;;;;;;;-145.41;100.00;58600.66;4993979;28;20101;-74
2023/04/21 10:46:40;;;;;;;5.82;2.95;;;;;;;-145.41;100.00;58600.66;4990439;28;20459;-74
2023/04/21 10:49:09;;;;;;;9.05;3.80;;;;;;;-145.41;100.00;58600.66;4993686;28;20042;-74
2023/04/21 10:51:56;;;;;;;7.65;3.78;;;;;;;-145.41;100.00;58600.66;4993886;28;20432;-73
2023/04/21 10:54:22;;;;;;;7.78;3.88;;;;;;;-145.41;100.00;58600.66;4990271;28;20038;-73
2023/04/21 10:56:50;;;;;;;8.05;3.70;;;;;;;-145.41;100.00;58600.66;4993844;28;20041;-74